createdAt,value
2023-02-08T00:01:20.628Z,37.88
2023-02-08T00:03:50.600Z,35.70
2023-02-08T00:06:20.558Z,36.55
2023-02-08T00:08:47.751Z,36.10
2023-02-08T00:11:14.886Z,34.15
2023-02-08T00:13:42.938Z,33.60
2023-02-08T00:16:12.830Z,37.38
2023-02-08T00:18:40.726Z,35.08
2023-02-08T00:21:14.397Z,31.95
2023-02-08T00:23:42.520Z,30.85
2023-02-08T00:26:10.294Z,35.42
2023-02-08T00:28:37.801Z,36.03
2023-02-08T00:31:06.070Z,32.35
2023-02-08T00:33:35.802Z,33.42
2023-02-08T00:36:07.654Z,31.20
2023-02-08T00:38:37.811Z,32.03
2023-02-08T00:41:06.237Z,30.13
2023-02-08T00:43:34.022Z,30.45
2023-02-08T00:46:01.706Z,29.08
2023-02-08T00:48:29.028Z,32.20
2023-02-08T00:51:13.639Z,30.60
2023-02-08T00:53:45.868Z,31.35
2023-02-08T00:58:42.604Z,30.38
2023-02-08T01:01:13.794Z,27.55
2023-02-08T01:03:45.158Z,26.03
2023-02-08T01:06:16.945Z,26.77
2023-02-08T01:08:44.498Z,25.33
2023-02-08T01:11:22.886Z,24.77
2023-02-08T01:13:50.756Z,27.17
2023-02-08T01:16:22.174Z,25.48
2023-02-08T01:18:53.418Z,26.33
2023-02-08T01:21:24.521Z,24.27
2023-02-08T01:23:52.564Z,23.77
2023-02-08T01:26:21.764Z,23.42
2023-02-08T01:28:49.639Z,22.65
2023-02-08T01:31:29.143Z,22.60
2023-02-08T01:34:00.042Z,22.58
2023-02-08T01:36:29.456Z,23.50
2023-02-08T01:38:56.653Z,22.38
2023-02-08T01:41:28.580Z,22.23
2023-02-08T01:44:13.512Z,21.05
2023-02-08T01:46:46.279Z,21.40
2023-02-08T01:49:14.265Z,21.60
2023-02-08T01:52:03.691Z,21.17
2023-02-08T01:54:42.489Z,20.20
2023-02-08T01:57:10.579Z,21.30
2023-02-08T01:59:48.283Z,20.38
2023-02-08T02:02:19.428Z,20.08
2023-02-08T02:04:49.331Z,19.25
2023-02-08T02:07:19.241Z,18.00
2023-02-08T02:10:09.110Z,18.17
2023-02-08T02:12:42.078Z,18.42
2023-02-08T02:15:10.385Z,16.52
2023-02-08T02:17:39.346Z,19.58
2023-02-08T02:20:23.209Z,17.25
2023-02-08T02:23:46.754Z,17.77
2023-02-08T02:26:51.931Z,17.42
2023-02-08T02:30:00.511Z,19.25
2023-02-08T02:33:08.076Z,18.42
2023-02-08T02:36:24.440Z,16.50
2023-02-08T02:39:17.789Z,18.90
2023-02-08T02:42:25.932Z,19.75
2023-02-08T02:44:59.173Z,19.75
2023-02-08T02:48:01.165Z,17.52
2023-02-08T02:50:33.567Z,17.70
2023-02-08T02:53:37.084Z,19.20
2023-02-08T02:56:11.304Z,17.10
2023-02-08T02:58:40.194Z,18.63
2023-02-08T03:01:10.017Z,17.25
2023-02-08T03:03:37.161Z,17.45
2023-02-08T03:06:15.274Z,16.13
2023-02-08T03:09:22.524Z,15.55
2023-02-08T03:12:11.513Z,16.25
2023-02-08T03:15:28.750Z,13.52
2023-02-08T03:18:06.424Z,15.15
2023-02-08T03:20:45.005Z,13.35
2023-02-08T03:24:00.551Z,12.02
2023-02-08T03:26:42.793Z,12.27
2023-02-08T03:29:16.323Z,11.70
2023-02-08T03:31:49.591Z,12.93
2023-02-08T03:34:54.708Z,12.50
2023-02-08T03:37:30.949Z,12.77
2023-02-08T03:40:14.243Z,11.23
2023-02-08T03:42:42.085Z,13.40
2023-02-08T03:45:32.276Z,11.15
2023-02-08T03:48:03.969Z,11.52
2023-02-08T03:50:36.395Z,7.53
2023-02-08T03:53:05.868Z,11.18
2023-02-08T03:55:37.835Z,10.00
2023-02-08T03:58:46.262Z,9.77
2023-02-08T04:01:25.353Z,10.75
2023-02-08T04:03:54.060Z,9.40
2023-02-08T04:06:23.157Z,8.80
2023-02-08T04:08:50.692Z,8.85
2023-02-08T04:11:17.944Z,9.20
2023-02-08T04:13:45.093Z,8.95
2023-02-08T04:16:15.302Z,9.05
2023-02-08T04:18:42.520Z,9.93
2023-02-08T04:21:09.737Z,8.98
2023-02-08T04:23:36.874Z,9.40
2023-02-08T04:26:04.248Z,8.07
2023-02-08T04:28:31.748Z,8.93
2023-02-08T04:30:59.099Z,9.88
2023-02-08T04:33:26.592Z,8.68
2023-02-08T04:35:53.735Z,7.90
2023-02-08T04:38:21.004Z,8.52
2023-02-08T04:40:48.118Z,8.00
2023-02-08T04:43:15.389Z,9.55
2023-02-08T04:45:42.634Z,9.13
2023-02-08T04:48:11.906Z,9.50
2023-02-08T04:50:39.798Z,9.60
2023-02-08T04:53:07.255Z,9.48
2023-02-08T04:55:35.229Z,10.20
2023-02-08T04:58:02.586Z,11.05
2023-02-08T05:00:30.162Z,11.27
2023-02-08T05:02:59.951Z,11.38
2023-02-08T05:05:28.509Z,11.48
2023-02-08T05:07:55.671Z,11.85
2023-02-08T05:10:22.886Z,12.40
2023-02-08T05:12:50.152Z,14.50
2023-02-08T05:15:20.095Z,11.80
2023-02-08T05:17:47.196Z,13.77
2023-02-08T05:20:15.124Z,12.93
2023-02-08T05:22:45.154Z,12.45
2023-02-08T05:25:12.419Z,13.02
2023-02-08T05:27:39.566Z,12.27
2023-02-08T05:30:07.544Z,12.00
2023-02-08T05:32:37.243Z,12.15
2023-02-08T05:35:04.691Z,12.43
2023-02-08T05:37:31.742Z,13.05
2023-02-08T05:39:59.675Z,18.23
2023-02-08T05:42:27.393Z,19.48
2023-02-08T05:44:54.476Z,16.40
2023-02-08T05:47:22.063Z,16.50
2023-02-08T05:49:51.850Z,18.30
2023-02-08T05:52:19.076Z,17.30
2023-02-08T05:54:46.221Z,16.70
2023-02-08T05:57:13.448Z,15.95
2023-02-08T05:59:40.726Z,17.00
2023-02-08T06:02:08.105Z,17.25
2023-02-08T06:04:37.972Z,21.85
2023-02-08T06:07:06.525Z,24.90
2023-02-08T06:09:33.684Z,21.10
2023-02-08T06:12:15.251Z,16.33
2023-02-08T06:14:42.493Z,18.17
2023-02-08T06:17:09.694Z,18.08
2023-02-08T06:19:36.960Z,19.73
2023-02-08T06:22:04.198Z,20.25
2023-02-08T06:24:31.547Z,21.67
2023-02-08T06:26:58.887Z,20.80
2023-02-08T06:29:26.008Z,19.92
2023-02-08T06:31:53.656Z,19.15
2023-02-08T06:34:21.050Z,19.58
2023-02-08T06:36:48.162Z,17.30
2023-02-08T06:39:15.457Z,18.80
2023-02-08T06:41:42.777Z,18.95
2023-02-08T06:44:10.323Z,19.10
2023-02-08T06:46:37.696Z,19.88
2023-02-08T06:49:05.108Z,19.15
2023-02-08T06:51:34.568Z,18.70
2023-02-08T06:54:01.701Z,19.58
2023-02-08T06:56:28.858Z,19.23
2023-02-08T06:58:57.417Z,20.10
2023-02-08T07:01:27.700Z,19.55
2023-02-08T07:03:55.145Z,19.85
2023-02-08T07:06:22.314Z,19.88
2023-02-08T07:08:49.521Z,19.90
2023-02-08T07:11:20.386Z,21.02
2023-02-08T07:13:52.150Z,19.98
2023-02-08T07:16:20.676Z,18.80
2023-02-08T07:18:48.121Z,18.60
2023-02-08T07:21:15.949Z,17.60
2023-02-08T07:23:43.059Z,19.45
2023-02-08T07:26:14.436Z,19.75
2023-02-08T07:28:42.316Z,14.65
2023-02-08T07:31:18.002Z,20.60
2023-02-08T07:33:45.740Z,21.58
2023-02-08T07:36:13.081Z,21.02
2023-02-08T07:38:40.552Z,19.33
2023-02-08T07:41:13.423Z,19.45
2023-02-08T07:43:42.152Z,20.83
2023-02-08T07:46:21.068Z,20.45
2023-02-08T07:48:52.841Z,20.52
2023-02-08T07:51:22.822Z,20.10
2023-02-08T07:53:51.192Z,23.38
2023-02-08T07:56:20.859Z,24.48
2023-02-08T07:58:50.417Z,23.35
2023-02-08T08:01:22.304Z,22.42
2023-02-08T08:03:51.577Z,23.70
2023-02-08T08:06:23.631Z,23.60
2023-02-08T08:08:54.088Z,23.85
2023-02-08T08:11:22.377Z,27.73
2023-02-08T08:13:50.462Z,24.38
2023-02-08T08:16:18.950Z,25.95
2023-02-08T08:18:49.405Z,29.02
2023-02-08T08:21:16.857Z,27.70
2023-02-08T08:23:44.346Z,28.77
2023-02-08T08:26:19.093Z,29.33
2023-02-08T08:28:47.454Z,28.88
2023-02-08T08:31:19.615Z,28.83
2023-02-08T08:36:14.780Z,27.23
2023-02-08T08:38:42.081Z,28.73
2023-02-08T08:41:18.010Z,29.33
2023-02-08T08:43:48.318Z,28.50
2023-02-08T08:46:16.855Z,30.52
2023-02-08T08:48:44.801Z,27.90
2023-02-08T08:51:12.754Z,28.75
2023-02-08T08:53:40.115Z,28.02
2023-02-08T08:56:07.633Z,28.65
2023-02-08T08:58:35.077Z,27.35
2023-02-08T09:01:02.417Z,29.73
2023-02-08T09:03:29.907Z,28.67
2023-02-08T09:05:59.568Z,28.88
2023-02-08T09:08:26.722Z,28.65
2023-02-08T09:10:54.022Z,28.88
2023-02-08T09:13:21.904Z,31.27
2023-02-08T09:15:49.982Z,30.65
2023-02-08T09:18:17.544Z,30.10
2023-02-08T09:20:44.971Z,31.80
2023-02-08T09:23:14.584Z,32.78
2023-02-08T09:25:42.036Z,32.17
2023-02-08T09:28:09.291Z,30.67
2023-02-08T09:30:36.515Z,32.38
2023-02-08T09:33:03.609Z,31.40
2023-02-08T09:35:30.883Z,30.80
2023-02-08T09:37:58.462Z,33.63
2023-02-08T09:40:33.681Z,32.72
2023-02-08T09:43:19.747Z,34.50
2023-02-08T09:46:15.699Z,34.15
2023-02-08T09:48:47.388Z,31.30
2023-02-08T09:51:35.980Z,32.83
2023-02-08T09:54:37.364Z,32.30
2023-02-08T09:57:12.046Z,33.95
2023-02-08T09:59:53.209Z,32.40
2023-02-08T10:02:34.526Z,32.65
2023-02-08T10:05:12.422Z,33.35
2023-02-08T10:07:42.862Z,32.17
2023-02-08T10:10:30.735Z,32.00
2023-02-08T10:13:25.686Z,30.35
2023-02-08T10:16:11.577Z,31.65
2023-02-08T10:19:14.326Z,29.88
2023-02-08T10:25:39.580Z,34.15
2023-02-08T10:28:21.471Z,33.30
2023-02-08T10:30:57.089Z,32.00
2023-02-08T10:33:37.456Z,31.85
2023-02-08T10:36:16.867Z,29.15
2023-02-08T10:38:46.709Z,30.40
2023-02-08T10:41:23.524Z,32.13
2023-02-08T10:44:04.871Z,30.08
2023-02-08T10:46:55.203Z,29.10
2023-02-08T10:50:00.547Z,28.30
2023-02-08T10:52:28.139Z,27.15
2023-02-08T10:55:00.119Z,27.90
2023-02-08T10:57:35.896Z,26.75
2023-02-08T11:00:12.819Z,29.02
2023-02-08T11:02:43.564Z,27.38
2023-02-08T11:05:17.300Z,27.23
2023-02-08T11:07:44.668Z,25.80
2023-02-08T11:10:22.682Z,25.50
2023-02-08T11:13:20.769Z,26.10
2023-02-08T11:15:57.808Z,26.52
2023-02-08T11:18:48.608Z,27.60
2023-02-08T11:21:42.398Z,27.85
2023-02-08T11:24:15.460Z,27.17
2023-02-08T11:26:43.049Z,27.45
2023-02-08T11:29:17.980Z,25.85
2023-02-08T11:32:19.379Z,25.80
2023-02-08T11:34:48.983Z,24.75
2023-02-08T11:37:26.738Z,22.05
2023-02-08T11:40:02.184Z,19.77
2023-02-08T11:42:47.206Z,24.33
2023-02-08T11:45:30.099Z,18.50
2023-02-08T11:47:57.708Z,20.42
2023-02-08T11:50:33.123Z,18.20
2023-02-08T11:53:04.391Z,20.48
2023-02-08T11:55:34.583Z,24.13
2023-02-08T11:58:13.110Z,23.55
2023-02-08T12:00:41.316Z,23.08
2023-02-08T12:03:25.375Z,20.90
2023-02-08T12:06:07.639Z,21.98
2023-02-08T12:09:03.552Z,19.52
2023-02-08T12:11:42.927Z,19.98
2023-02-08T12:14:39.284Z,19.80
2023-02-08T12:17:34.929Z,21.52
2023-02-08T12:20:26.143Z,24.60
2023-02-08T12:23:15.166Z,24.50
2023-02-08T12:26:04.529Z,25.02
2023-02-08T12:28:53.981Z,24.83
2023-02-08T12:31:54.780Z,24.33
2023-02-08T12:34:49.437Z,23.17
2023-02-08T12:38:04.877Z,24.70
2023-02-08T12:41:12.134Z,23.60
2023-02-08T12:44:27.105Z,23.70
2023-02-08T12:47:34.006Z,24.65
2023-02-08T12:50:09.325Z,24.42
2023-02-08T12:52:48.394Z,22.67
2023-02-08T12:55:35.031Z,25.58
2023-02-08T12:58:30.571Z,27.83
2023-02-08T13:01:09.030Z,25.38
2023-02-08T13:04:09.155Z,27.02
2023-02-08T13:06:49.641Z,28.13
2023-02-08T13:09:35.986Z,26.90
2023-02-08T13:12:14.255Z,31.63
2023-02-08T13:14:48.067Z,31.38
2023-02-08T13:17:23.550Z,32.00
2023-02-08T13:20:01.619Z,35.17
2023-02-08T13:22:40.797Z,30.52
2023-02-08T13:25:34.413Z,31.08
2023-02-08T13:28:11.137Z,29.58
2023-02-08T13:30:40.631Z,31.80
2023-02-08T13:33:18.847Z,28.33
2023-02-08T13:35:53.123Z,28.67
2023-02-08T13:38:35.582Z,30.48
2023-02-08T13:44:04.086Z,28.63
2023-02-08T13:46:44.825Z,32.72
2023-02-08T13:49:54.088Z,30.02
2023-02-08T13:52:46.346Z,33.47
2023-02-08T13:55:33.636Z,35.45
2023-02-08T13:58:06.052Z,31.55
2023-02-08T14:03:21.846Z,30.88
2023-02-08T14:06:22.547Z,28.27
2023-02-08T14:09:13.802Z,28.48
2023-02-08T14:11:43.726Z,29.58
2023-02-08T14:14:24.115Z,32.10
2023-02-08T14:17:21.249Z,29.23
2023-02-08T14:20:06.926Z,27.63
2023-02-08T14:22:48.424Z,31.77
2023-02-08T14:25:16.218Z,30.50
2023-02-08T14:27:52.320Z,30.27
2023-02-08T14:30:19.346Z,30.33
2023-02-08T14:33:12.364Z,26.25
2023-02-08T14:35:59.605Z,26.05
2023-02-08T14:39:10.784Z,26.67
2023-02-08T14:41:48.616Z,27.33
2023-02-08T14:44:43.588Z,28.65
2023-02-08T14:47:24.563Z,28.17
2023-02-08T14:50:24.626Z,25.88
2023-02-08T14:53:27.267Z,24.50
2023-02-08T14:56:24.636Z,26.42
2023-02-08T14:59:12.268Z,25.50
2023-02-08T15:01:50.621Z,30.05
2023-02-08T15:04:20.991Z,26.95
2023-02-08T15:07:17.426Z,29.25
2023-02-08T15:09:46.110Z,25.90
2023-02-08T15:12:32.495Z,26.73
2023-02-08T15:15:05.550Z,28.48
2023-02-08T15:17:41.098Z,32.38
2023-02-08T15:20:27.220Z,29.75
2023-02-08T15:23:18.136Z,25.42
2023-02-08T15:25:54.203Z,27.55
2023-02-08T15:28:25.855Z,27.50
2023-02-08T15:31:09.341Z,27.10
2023-02-08T15:33:44.666Z,27.30
2023-02-08T15:36:29.442Z,28.63
2023-02-08T15:39:11.321Z,36.85
2023-02-08T15:41:38.546Z,54.83
2023-02-08T15:44:28.048Z,36.45
2023-02-08T15:46:57.353Z,27.80
2023-02-08T15:49:39.692Z,29.23
2023-02-08T15:54:35.747Z,28.90
2023-02-08T15:57:18.874Z,29.17
2023-02-08T15:59:48.537Z,32.75
2023-02-08T16:02:32.848Z,34.22
2023-02-08T16:05:02.658Z,33.38
2023-02-08T16:07:39.194Z,35.25
2023-02-08T16:10:10.170Z,41.40
2023-02-08T16:12:37.371Z,38.55
2023-02-08T16:15:05.058Z,32.47
2023-02-08T16:17:43.320Z,34.75
2023-02-08T16:20:33.807Z,30.88
2023-02-08T16:23:23.734Z,34.03
2023-02-08T16:25:51.442Z,32.92
2023-02-08T16:28:33.821Z,41.15
2023-02-08T16:31:05.041Z,41.13
2023-02-08T16:33:34.936Z,30.85
2023-02-08T16:36:02.277Z,35.20
2023-02-08T16:38:32.419Z,34.97
2023-02-08T16:41:12.381Z,30.95
2023-02-08T16:43:47.952Z,32.75
2023-02-08T16:46:25.292Z,31.60
2023-02-08T16:48:57.350Z,30.40
2023-02-08T16:51:28.892Z,30.38
2023-02-08T16:54:07.570Z,25.92
2023-02-08T16:56:39.832Z,33.42
2023-02-08T16:59:08.610Z,33.28
2023-02-08T17:01:36.298Z,34.00
2023-02-08T17:04:04.064Z,36.78
2023-02-08T17:06:36.799Z,40.00
2023-02-08T17:09:06.641Z,37.63
2023-02-08T17:11:33.843Z,40.45
2023-02-08T17:14:01.186Z,36.28
2023-02-08T17:16:31.073Z,33.78
2023-02-08T17:18:59.680Z,35.75
2023-02-08T17:21:29.392Z,37.80
2023-02-08T17:23:57.619Z,36.25
2023-02-08T17:26:40.281Z,39.90
2023-02-08T17:29:08.331Z,35.10
2023-02-08T17:31:35.947Z,36.03
2023-02-08T17:34:06.112Z,40.50
2023-02-08T17:36:36.136Z,36.10
2023-02-08T17:39:05.544Z,37.13
2023-02-08T17:41:32.962Z,33.63
2023-02-08T17:44:00.235Z,34.60
2023-02-08T17:46:30.779Z,33.88
2023-02-08T17:49:01.857Z,32.38
2023-02-08T17:51:29.595Z,40.28
2023-02-08T17:53:57.065Z,37.42
2023-02-08T17:56:31.542Z,39.75
2023-02-08T17:59:00.976Z,42.00
2023-02-08T18:01:28.213Z,42.55
2023-02-08T18:03:55.872Z,43.47
2023-02-08T18:06:25.067Z,46.42
2023-02-08T18:08:54.029Z,44.47
2023-02-08T18:11:23.592Z,45.35
2023-02-08T18:13:53.081Z,50.35
2023-02-08T18:16:24.791Z,49.95
2023-02-08T18:18:55.908Z,43.47
2023-02-08T18:21:27.050Z,44.80
2023-02-08T18:23:55.588Z,45.50
2023-02-08T18:26:25.204Z,41.80
2023-02-08T18:28:53.689Z,40.38
2023-02-08T18:31:21.288Z,40.85
2023-02-08T18:33:51.764Z,38.30
2023-02-08T18:36:20.701Z,40.03
2023-02-08T18:38:51.822Z,38.35
2023-02-08T18:41:23.540Z,40.30
2023-02-08T18:43:51.880Z,35.35
2023-02-08T18:46:22.519Z,36.08
2023-02-08T18:48:51.402Z,34.10
2023-02-08T18:51:20.104Z,36.00
2023-02-08T18:53:55.160Z,33.50
2023-02-08T18:56:25.408Z,32.83
2023-02-08T18:58:54.875Z,33.28
2023-02-08T19:01:24.767Z,33.03
2023-02-08T19:03:52.936Z,31.77
2023-02-08T19:06:26.880Z,33.40
2023-02-08T19:08:55.690Z,37.30
2023-02-08T19:11:34.141Z,49.50
2023-02-08T19:14:04.977Z,55.25
2023-02-08T19:16:35.301Z,57.00
2023-02-08T19:19:04.246Z,50.42
2023-02-08T19:21:34.815Z,49.47
2023-02-08T19:24:02.786Z,42.15
2023-02-08T19:26:35.467Z,39.95
2023-02-08T19:29:06.722Z,44.70
2023-02-08T19:31:35.173Z,32.92
2023-02-08T19:34:04.530Z,40.08
2023-02-08T19:36:32.935Z,39.95
2023-02-08T19:39:04.354Z,41.10
2023-02-08T19:41:38.327Z,44.05
2023-02-08T19:44:08.717Z,42.65
2023-02-08T19:46:38.915Z,43.60
2023-02-08T19:49:07.713Z,45.83
2023-02-08T19:51:38.012Z,47.58
2023-02-08T19:54:10.680Z,43.97
2023-02-08T19:56:38.317Z,43.15
2023-02-08T19:59:08.413Z,45.53
2023-02-08T20:01:36.320Z,46.38
2023-02-08T20:04:06.354Z,42.58
2023-02-08T20:06:37.329Z,47.85
2023-02-08T20:09:06.873Z,48.83
2023-02-08T20:12:00.268Z,44.40
2023-02-08T20:14:32.853Z,45.55
2023-02-08T20:17:02.211Z,46.50
2023-02-08T20:19:29.597Z,48.10
2023-02-08T20:21:56.774Z,47.95
2023-02-08T20:24:24.100Z,44.80
2023-02-08T20:26:51.555Z,45.38
2023-02-08T20:29:19.114Z,43.83
2023-02-08T20:31:49.365Z,42.40
2023-02-08T20:34:19.496Z,43.33
2023-02-08T20:37:06.898Z,47.08
2023-02-08T20:39:36.696Z,50.92
2023-02-08T20:42:04.953Z,46.85
2023-02-08T20:44:32.382Z,45.88
2023-02-08T20:47:00.202Z,51.33
2023-02-08T20:49:27.508Z,53.35
2023-02-08T20:51:57.407Z,48.70
2023-02-08T20:54:25.040Z,46.83
2023-02-08T20:56:53.178Z,42.22
2023-02-08T20:59:23.196Z,46.83
2023-02-08T21:01:50.662Z,43.20
2023-02-08T21:04:20.352Z,43.75
2023-02-08T21:06:47.895Z,48.03
2023-02-08T21:09:18.092Z,46.78
2023-02-08T21:11:47.280Z,56.17
2023-02-08T21:14:19.176Z,55.15
2023-02-08T21:16:55.926Z,51.67
2023-02-08T21:19:24.210Z,47.15
2023-02-08T21:21:54.220Z,50.83
2023-02-08T21:24:23.982Z,50.53
2023-02-08T21:26:53.138Z,48.83
2023-02-08T21:29:21.499Z,50.30
2023-02-08T21:31:52.018Z,48.40
2023-02-08T21:34:22.082Z,48.45
2023-02-08T21:36:51.413Z,49.05
2023-02-08T21:39:18.921Z,49.33
2023-02-08T21:41:49.148Z,50.97
2023-02-08T21:44:18.749Z,46.92
2023-02-08T21:46:46.079Z,47.72
2023-02-08T21:49:32.007Z,46.00
2023-02-08T21:52:17.912Z,45.55
2023-02-08T21:54:45.922Z,46.00
2023-02-08T21:57:19.329Z,45.75
2023-02-08T21:59:49.670Z,45.20
2023-02-08T22:02:28.106Z,43.85
2023-02-08T22:04:58.475Z,44.55
2023-02-08T22:07:27.614Z,45.13
2023-02-08T22:09:56.308Z,45.45
2023-02-08T22:12:23.915Z,46.55
2023-02-08T22:14:51.301Z,45.67
2023-02-08T22:17:18.936Z,47.25
2023-02-08T22:19:46.235Z,47.13
2023-02-08T22:22:13.445Z,46.83
2023-02-08T22:24:42.992Z,46.75
2023-02-08T22:27:10.595Z,47.50
2023-02-08T22:29:37.877Z,58.97
2023-02-08T22:32:06.060Z,47.47
2023-02-08T22:34:33.339Z,91.95
2023-02-08T22:37:03.807Z,49.72
2023-02-08T22:39:35.993Z,81.50
2023-02-08T22:47:15.880Z,50.85
2023-02-08T22:49:43.045Z,52.63
2023-02-08T22:52:11.940Z,50.40
2023-02-08T22:54:39.158Z,43.80
2023-02-08T22:57:09.146Z,45.67
2023-02-08T22:59:40.416Z,42.88
2023-02-08T23:02:12.765Z,42.30
2023-02-08T23:04:42.274Z,44.13
2023-02-08T23:07:09.500Z,45.10
2023-02-08T23:09:36.753Z,43.95
2023-02-08T23:12:11.432Z,40.78
2023-02-08T23:14:38.705Z,42.75
2023-02-08T23:17:05.835Z,41.83
2023-02-08T23:19:33.021Z,43.03
2023-02-08T23:22:00.563Z,41.30
2023-02-08T23:24:28.158Z,41.92
2023-02-08T23:26:55.495Z,38.83
2023-02-08T23:29:22.737Z,42.00
2023-02-08T23:31:49.996Z,40.03
2023-02-08T23:34:18.369Z,45.85
2023-02-08T23:36:48.125Z,40.95
2023-02-08T23:39:15.344Z,41.20
2023-02-08T23:41:42.481Z,42.15
2023-02-08T23:44:09.921Z,41.47
2023-02-08T23:46:37.067Z,42.00
2023-02-08T23:49:06.684Z,40.63
2023-02-08T23:51:33.913Z,43.03
2023-02-08T23:54:01.082Z,44.47
2023-02-08T23:56:32.041Z,46.15
2023-02-08T23:58:59.847Z,39.85
